Time;durP1;ratioP1;P1;durP2;ratioP2;P2;SDS_P1;SDS_P2;PMS_P1;PMS_P2;Temp;Humidity;BMP_temperature;BMP_pressure;BME280_temperature;BME280_humidity;BME280_pressure;Samples;Min_cycle;Max_cycle;Signal;HPM_P1;HPM_P2
2022/02/23 00:00:11;;;;;;;20.40;1.20;;;5.80;99.90;;;;;;5036455;28;20030;-81
2022/02/23 00:02:37;;;;;;;11.45;1.05;;;5.70;99.90;;;;;;5048747;28;20025;-81
2022/02/23 00:05:03;;;;;;;16.13;1.27;;;5.70;99.90;;;;;;5041008;28;20503;-81
2022/02/23 00:07:29;;;;;;;12.52;1.27;;;5.70;99.90;;;;;;5025868;28;20469;-82
2022/02/23 00:09:54;;;;;;;19.42;1.10;;;5.80;99.90;;;;;;5053180;28;20036;-81
2022/02/23 00:12:20;;;;;;;13.77;0.80;;;5.80;99.90;;;;;;5045110;28;20495;-81
2022/02/23 00:14:45;;;;;;;14.32;0.80;;;5.80;99.90;;;;;;5031809;28;20096;-81
2022/02/23 00:17:11;;;;;;;17.15;2.28;;;5.70;99.90;;;;;;5035413;28;20030;-81
2022/02/23 00:19:37;;;;;;;16.55;0.95;;;5.70;99.90;;;;;;5037711;28;20049;-81
2022/02/23 00:22:03;;;;;;;25.98;3.85;;;5.70;99.90;;;;;;5041869;28;20029;-81
2022/02/23 00:24:28;;;;;;;20.33;1.60;;;5.70;99.90;;;;;;5039158;28;20100;-81
2022/02/23 00:26:54;;;;;;;17.77;1.70;;;5.60;99.90;;;;;;5028134;28;20117;-81
2022/02/23 00:29:19;;;;;;;18.48;1.63;;;5.60;99.90;;;;;;5020517;28;20091;-81
2022/02/23 00:31:46;;;;;;;17.15;1.58;;;5.60;99.90;;;;;;5030197;28;20499;-81
2022/02/23 00:34:11;;;;;;;20.92;1.75;;;5.50;99.90;;;;;;5032838;28;20108;-81
2022/02/23 00:36:37;;;;;;;19.15;1.50;;;5.50;99.90;;;;;;5040682;28;20124;-82
2022/02/23 00:39:02;;;;;;;14.10;1.20;;;5.50;99.90;;;;;;5036563;28;20041;-82
2022/02/23 00:41:28;;;;;;;19.30;1.08;;;5.40;99.90;;;;;;5039558;28;20029;-81
2022/02/23 00:43:53;;;;;;;8.63;0.80;;;5.40;99.90;;;;;;5053099;28;20467;-81
2022/02/23 00:46:22;;;;;;;13.55;1.23;;;5.30;99.90;;;;;;5023848;28;20380;-81
2022/02/23 00:48:47;;;;;;;17.00;1.55;;;5.20;99.90;;;;;;5031131;28;20059;-82
2022/02/23 00:51:13;;;;;;;17.88;1.00;;;5.10;99.90;;;;;;5036168;28;20045;-81
2022/02/23 00:53:39;;;;;;;14.75;0.90;;;5.00;99.90;;;;;;5053252;28;20361;-81
2022/02/23 00:56:04;;;;;;;16.17;1.13;;;4.90;99.90;;;;;;5024256;28;20042;-80
2022/02/23 00:58:30;;;;;;;17.98;0.98;;;4.70;99.90;;;;;;5039489;28;20040;-81
2022/02/23 01:00:56;;;;;;;12.52;0.98;;;4.70;99.90;;;;;;5036368;28;20018;-81
2022/02/23 01:03:21;;;;;;;15.77;2.58;;;4.60;99.90;;;;;;5032418;28;20029;-82
2022/02/23 01:05:47;;;;;;;13.32;1.70;;;4.70;99.90;;;;;;5038039;28;20029;-82
2022/02/23 01:08:12;;;;;;;22.52;1.50;;;4.60;99.90;;;;;;5037520;28;20029;-81
2022/02/23 01:10:38;;;;;;;17.80;1.27;;;4.70;99.90;;;;;;5046623;28;20020;-80
2022/02/23 01:13:04;;;;;;;15.27;1.48;;;4.70;99.90;;;;;;5037982;28;20033;-80
2022/02/23 01:15:29;;;;;;;17.27;1.50;;;4.70;99.90;;;;;;5036235;28;20112;-81
2022/02/23 01:17:55;;;;;;;14.13;1.30;;;4.70;99.90;;;;;;5033808;28;20049;-81
2022/02/23 01:20:21;;;;;;;17.08;0.88;;;4.80;99.90;;;;;;5051679;28;20041;-81
2022/02/23 01:22:46;;;;;;;22.13;1.55;;;4.80;99.90;;;;;;5050893;28;20500;-81
2022/02/23 01:25:12;;;;;;;14.45;1.35;;;4.80;99.90;;;;;;5041786;28;20074;-80
2022/02/23 01:27:38;;;;;;;20.98;3.40;;;4.80;99.90;;;;;;5043712;28;20021;-81
2022/02/23 01:30:05;;;;;;;21.42;2.70;;;4.80;99.90;;;;;;5032053;28;20071;-81
2022/02/23 01:32:31;;;;;;;9.63;1.27;;;4.80;99.90;;;;;;5026251;28;20025;-81
2022/02/23 01:34:56;;;;;;;17.17;2.08;;;4.80;99.90;;;;;;5033806;28;20100;-82
2022/02/23 01:37:22;;;;;;;19.20;2.38;;;4.80;99.90;;;;;;5031541;28;20032;-81
2022/02/23 01:39:49;;;;;;;16.20;1.65;;;4.80;99.90;;;;;;5034794;28;20072;-81
2022/02/23 01:42:15;;;;;;;13.77;1.15;;;4.80;99.90;;;;;;5033070;28;20029;-81
2022/02/23 01:44:41;;;;;;;18.27;1.30;;;4.80;99.90;;;;;;5043103;28;20025;-81
2022/02/23 01:47:07;;;;;;;13.93;1.40;;;4.80;99.90;;;;;;5028909;28;20026;-81
2022/02/23 01:49:33;;;;;;;18.27;1.38;;;4.80;99.90;;;;;;5036744;28;20171;-81
2022/02/23 01:51:58;;;;;;;15.90;1.42;;;4.70;99.90;;;;;;5031065;28;20120;-82
2022/02/23 01:54:24;;;;;;;19.23;1.92;;;4.70;99.90;;;;;;5025855;28;20065;-81
2022/02/23 01:56:49;;;;;;;17.67;1.77;;;4.70;99.90;;;;;;5031102;28;20033;-80
2022/02/23 01:59:15;;;;;;;18.77;1.20;;;4.70;99.90;;;;;;5014275;28;20038;-82
2022/02/23 02:01:40;;;;;;;11.98;1.13;;;4.70;99.90;;;;;;5038029;28;20033;-81
2022/02/23 02:04:06;;;;;;;17.83;1.55;;;4.70;99.90;;;;;;5050640;28;20056;-81
2022/02/23 02:06:31;;;;;;;16.75;0.93;;;4.70;99.90;;;;;;5032503;28;20040;-80
2022/02/23 02:08:57;;;;;;;11.80;1.13;;;4.60;99.90;;;;;;5045606;28;20025;-80
2022/02/23 02:11:22;;;;;;;13.55;0.80;;;4.60;99.90;;;;;;5021228;28;20056;-81
2022/02/23 02:13:48;;;;;;;13.88;1.13;;;4.60;99.90;;;;;;5036510;28;20025;-81
2022/02/23 02:16:13;;;;;;;21.48;2.38;;;4.50;99.90;;;;;;5044373;28;20082;-81
2022/02/23 02:18:39;;;;;;;16.35;1.35;;;4.50;99.90;;;;;;5037497;28;20037;-81
2022/02/23 02:21:04;;;;;;;12.98;1.50;;;4.50;99.90;;;;;;5026795;28;20537;-81
2022/02/23 02:23:30;;;;;;;15.70;1.25;;;4.50;99.90;;;;;;5038019;28;20021;-81
2022/02/23 02:25:55;;;;;;;14.25;0.88;;;4.40;99.90;;;;;;5037707;28;20032;-81
2022/02/23 02:28:21;;;;;;;16.77;1.90;;;4.40;99.90;;;;;;5042679;28;20060;-82
2022/02/23 02:30:47;;;;;;;16.55;1.08;;;4.30;99.90;;;;;;5042439;28;20480;-81
2022/02/23 02:33:12;;;;;;;12.80;1.50;;;4.30;99.90;;;;;;5043656;28;20028;-81
2022/02/23 02:35:38;;;;;;;22.67;2.28;;;4.20;99.90;;;;;;5042865;28;20044;-81
2022/02/23 02:38:06;;;;;;;14.15;1.08;;;4.20;99.90;;;;;;5012821;28;20394;-82
2022/02/23 02:40:33;;;;;;;14.00;1.73;;;4.10;99.90;;;;;;5029396;28;20025;-81
2022/02/23 02:42:58;;;;;;;14.65;1.33;;;4.00;99.90;;;;;;5031783;28;20385;-81
2022/02/23 02:45:25;;;;;;;12.20;0.93;;;4.00;99.90;;;;;;5034545;28;20032;-81
2022/02/23 02:47:51;;;;;;;14.77;1.45;;;3.90;99.90;;;;;;5030909;28;20407;-80
2022/02/23 02:50:16;;;;;;;16.77;1.75;;;3.90;99.90;;;;;;5042949;28;20064;-81
2022/02/23 02:52:42;;;;;;;15.25;1.10;;;3.90;99.90;;;;;;5040760;28;20036;-81
2022/02/23 02:55:08;;;;;;;13.25;1.23;;;3.80;99.90;;;;;;5031066;28;20017;-79
2022/02/23 02:57:37;;;;;;;8.93;0.80;;;3.80;99.90;;;;;;5036231;28;20496;-81
2022/02/23 03:00:05;;;;;;;16.75;1.42;;;3.70;99.90;;;;;;5022967;28;20038;-80
2022/02/23 03:02:31;;;;;;;19.20;1.20;;;3.70;99.90;;;;;;5027320;28;20041;-81
2022/02/23 03:04:56;;;;;;;20.45;1.23;;;3.60;99.90;;;;;;5045521;28;20025;-80
2022/02/23 03:07:22;;;;;;;14.50;0.98;;;3.60;99.90;;;;;;5044251;28;20112;-80
2022/02/23 03:09:47;;;;;;;21.13;1.70;;;3.60;99.90;;;;;;5034761;28;20033;-80
2022/02/23 03:12:13;;;;;;;20.90;1.67;;;3.50;99.90;;;;;;5041285;28;20064;-81
2022/02/23 03:14:39;;;;;;;15.60;1.55;;;3.60;99.90;;;;;;5055225;28;20079;-80
2022/02/23 03:17:05;;;;;;;16.17;1.38;;;3.50;99.90;;;;;;5037940;28;20030;-80
2022/02/23 03:19:33;;;;;;;15.50;1.05;;;3.60;99.90;;;;;;5047140;28;20059;-80
2022/02/23 03:21:59;;;;;;;12.68;1.15;;;3.60;99.90;;;;;;5036152;28;20029;-81
2022/02/23 03:24:25;;;;;;;15.68;1.33;;;3.60;99.90;;;;;;5038286;28;20025;-81
2022/02/23 03:26:50;;;;;;;15.00;1.20;;;3.60;99.90;;;;;;5040082;28;20029;-81
2022/02/23 03:29:16;;;;;;;12.35;1.52;;;3.60;99.90;;;;;;5044130;28;20039;-81
2022/02/23 03:31:41;;;;;;;20.90;2.67;;;3.60;99.90;;;;;;5018424;28;20063;-81
2022/02/23 03:34:07;;;;;;;19.42;1.35;;;3.60;99.90;;;;;;5016645;28;20102;-81
2022/02/23 03:36:33;;;;;;;17.25;0.98;;;3.60;99.90;;;;;;5023928;28;20436;-81
2022/02/23 03:38:59;;;;;;;14.00;1.30;;;3.60;99.90;;;;;;5050781;28;20045;-80
2022/02/23 03:41:25;;;;;;;23.75;1.50;;;3.60;99.90;;;;;;5047135;28;20025;-81
2022/02/23 03:43:50;;;;;;;20.60;1.67;;;3.60;99.90;;;;;;5035691;28;20038;-81
2022/02/23 03:46:16;;;;;;;20.92;1.35;;;3.60;99.90;;;;;;5034187;28;20028;-81
2022/02/23 03:48:41;;;;;;;15.65;1.10;;;3.60;99.90;;;;;;5034877;28;20107;-81
2022/02/23 03:51:08;;;;;;;13.75;1.65;;;3.60;99.90;;;;;;5033267;28;20141;-80
2022/02/23 03:53:34;;;;;;;12.35;1.00;;;3.60;99.90;;;;;;5033602;28;20033;-82
2022/02/23 03:55:59;;;;;;;15.20;1.05;;;3.60;99.90;;;;;;5032995;28;20045;-82
2022/02/23 03:58:25;;;;;;;14.65;1.92;;;3.60;99.90;;;;;;5033598;28;20034;-81
2022/02/23 04:00:51;;;;;;;12.35;1.05;;;3.60;99.90;;;;;;5021809;28;20116;-81
2022/02/23 04:03:16;;;;;;;10.75;1.52;;;3.60;99.90;;;;;;5049095;28;20029;-81
2022/02/23 04:05:42;;;;;;;20.80;1.30;;;3.60;99.90;;;;;;5033436;28;20036;-81
2022/02/23 04:08:08;;;;;;;24.70;1.83;;;3.60;99.90;;;;;;5033260;28;20384;-81
2022/02/23 04:10:35;;;;;;;22.50;2.13;;;3.60;99.90;;;;;;5047453;28;20020;-81
2022/02/23 04:13:01;;;;;;;12.15;1.35;;;3.60;99.90;;;;;;5018995;28;20053;-80
2022/02/23 04:15:26;;;;;;;14.13;1.38;;;3.60;99.90;;;;;;5021981;28;20542;-81
2022/02/23 04:17:52;;;;;;;18.92;1.58;;;3.60;99.90;;;;;;5043340;28;20014;-80
2022/02/23 04:20:17;;;;;;;13.15;1.80;;;3.70;99.90;;;;;;5045313;28;20044;-80
2022/02/23 04:22:44;;;;;;;13.23;1.27;;;3.70;99.90;;;;;;5043007;28;20029;-81
2022/02/23 04:25:10;;;;;;;17.98;1.30;;;3.60;99.90;;;;;;5037836;28;20025;-80
2022/02/23 04:27:36;;;;;;;11.50;1.25;;;3.60;99.90;;;;;;5040397;28;20492;-81
2022/02/23 04:30:02;;;;;;;12.35;1.38;;;3.60;99.90;;;;;;5035575;28;20029;-81
2022/02/23 04:32:27;;;;;;;17.92;1.55;;;3.70;99.90;;;;;;5024312;28;20024;-80
2022/02/23 04:34:53;;;;;;;14.57;2.00;;;3.70;99.90;;;;;;5033102;28;20030;-80
2022/02/23 04:37:20;;;;;;;12.80;1.05;;;3.70;99.90;;;;;;5034847;28;20017;-80
2022/02/23 04:39:46;;;;;;;15.57;1.48;;;3.70;99.90;;;;;;5041513;28;20492;-81
2022/02/23 04:42:11;;;;;;;11.52;1.80;;;3.70;99.90;;;;;;5036942;28;20055;-80
2022/02/23 04:44:37;;;;;;;15.73;1.52;;;3.70;99.90;;;;;;5043615;28;20041;-81
2022/02/23 04:47:05;;;;;;;17.83;1.55;;;3.70;99.90;;;;;;5035269;28;20022;-81
2022/02/23 04:49:31;;;;;;;15.43;1.20;;;3.70;99.90;;;;;;5039273;28;20022;-80
2022/02/23 04:51:56;;;;;;;21.95;2.13;;;3.70;99.90;;;;;;5019242;28;20056;-81
2022/02/23 04:54:22;;;;;;;17.67;1.65;;;3.70;99.90;;;;;;5037573;28;20049;-81
2022/02/23 04:56:48;;;;;;;22.48;2.03;;;3.70;99.90;;;;;;5031402;28;20021;-81
2022/02/23 04:59:13;;;;;;;20.55;1.83;;;3.70;99.90;;;;;;5037081;28;20106;-81
2022/02/23 05:01:39;;;;;;;15.02;1.20;;;3.70;99.90;;;;;;5040231;28;20061;-81
2022/02/23 05:04:05;;;;;;;21.75;1.98;;;3.80;99.90;;;;;;5045058;28;20075;-81
2022/02/23 05:06:30;;;;;;;17.92;1.70;;;3.80;99.90;;;;;;5017013;28;20056;-79
2022/02/23 05:08:56;;;;;;;17.17;1.30;;;3.80;99.90;;;;;;5033462;28;20040;-81
2022/02/23 05:11:21;;;;;;;19.58;1.77;;;3.80;99.90;;;;;;5031439;28;20024;-80
2022/02/23 05:13:47;;;;;;;12.57;1.00;;;3.70;99.90;;;;;;5034921;28;20041;-81
2022/02/23 05:16:12;;;;;;;22.00;2.88;;;3.70;99.90;;;;;;5040021;28;20025;-80
2022/02/23 05:18:38;;;;;;;18.98;2.78;;;3.60;99.90;;;;;;5036226;28;20084;-80
2022/02/23 05:21:03;;;;;;;14.63;1.40;;;3.60;99.90;;;;;;5037853;28;22094;-80
2022/02/23 05:23:30;;;;;;;18.90;2.55;;;3.50;99.90;;;;;;5040414;28;20041;-81
2022/02/23 05:25:56;;;;;;;15.30;1.55;;;3.50;99.90;;;;;;5020448;28;20021;-80
2022/02/23 05:28:22;;;;;;;11.15;1.80;;;3.50;99.90;;;;;;5037351;28;20040;-79
2022/02/23 05:30:48;;;;;;;21.55;1.45;;;3.50;99.90;;;;;;5050671;28;20465;-79
2022/02/23 05:33:14;;;;;;;16.88;1.50;;;3.40;99.90;;;;;;5031780;28;20033;-78
2022/02/23 05:35:40;;;;;;;13.60;1.00;;;3.40;99.90;;;;;;5031859;28;20570;-79
2022/02/23 05:38:06;;;;;;;17.05;1.90;;;3.30;99.90;;;;;;5031330;28;20112;-80
2022/02/23 05:40:32;;;;;;;13.45;1.42;;;3.30;99.90;;;;;;5031685;28;20094;-81
2022/02/23 05:42:57;;;;;;;12.52;1.13;;;3.20;99.90;;;;;;5037487;28;20033;-81
2022/02/23 05:45:23;;;;;;;19.13;1.77;;;3.10;99.90;;;;;;5027957;28;20029;-81
2022/02/23 05:47:49;;;;;;;16.55;1.65;;;3.10;99.90;;;;;;5031515;28;20381;-81
2022/02/23 05:50:15;;;;;;;19.13;1.33;;;3.00;99.90;;;;;;5029627;28;20443;-81
2022/02/23 05:52:41;;;;;;;16.63;1.30;;;2.90;99.90;;;;;;5028214;28;20534;-81
2022/02/23 05:55:07;;;;;;;16.80;1.00;;;2.90;99.90;;;;;;5028749;28;20480;-81
2022/02/23 05:57:33;;;;;;;15.02;2.20;;;2.80;99.90;;;;;;5031561;28;20096;-79
2022/02/23 06:00:00;;;;;;;12.98;1.60;;;2.80;99.90;;;;;;5032877;28;20125;-81
2022/02/23 06:02:25;;;;;;;11.93;1.50;;;2.80;99.90;;;;;;5028839;28;20021;-81
2022/02/23 06:04:51;;;;;;;13.45;1.42;;;2.70;99.90;;;;;;5037226;28;20488;-81
2022/02/23 06:07:17;;;;;;;19.00;1.67;;;2.70;99.90;;;;;;5032844;28;20021;-81
2022/02/23 06:09:42;;;;;;;14.52;1.90;;;2.70;99.90;;;;;;5025821;28;20029;-81
2022/02/23 06:12:08;;;;;;;17.83;1.80;;;2.70;99.90;;;;;;5024319;28;20509;-81
2022/02/23 06:14:33;;;;;;;16.70;1.10;;;2.70;99.90;;;;;;5030400;28;20086;-80
2022/02/23 06:16:59;;;;;;;16.92;1.70;;;2.70;99.90;;;;;;5025726;28;20021;-79
2022/02/23 06:19:25;;;;;;;16.58;1.70;;;2.70;99.90;;;;;;5024562;28;20111;-81
2022/02/23 06:21:51;;;;;;;16.77;1.67;;;2.70;99.90;;;;;;5008679;28;20445;-80
2022/02/23 06:24:16;;;;;;;15.43;1.70;;;2.70;99.90;;;;;;5033482;28;20029;-81
2022/02/23 06:26:42;;;;;;;21.95;2.17;;;2.70;99.90;;;;;;5041681;28;20032;-80
2022/02/23 06:29:08;;;;;;;15.57;1.33;;;2.70;99.90;;;;;;5042989;28;20053;-80
2022/02/23 06:31:33;;;;;;;17.48;2.28;;;2.70;99.90;;;;;;5037529;28;20484;-80
2022/02/23 06:33:59;;;;;;;15.77;1.45;;;2.70;99.90;;;;;;5046059;28;20083;-78
2022/02/23 06:36:24;;;;;;;16.02;1.63;;;2.60;99.90;;;;;;5031302;28;20432;-80
2022/02/23 06:38:50;;;;;;;20.17;1.85;;;2.60;99.90;;;;;;5042405;28;20037;-81
2022/02/23 06:41:18;;;;;;;16.42;1.70;;;2.60;99.90;;;;;;5029367;28;20211;-79
2022/02/23 06:43:47;;;;;;;20.73;1.60;;;2.60;99.90;;;;;;5027099;28;20432;-79
2022/02/23 06:46:13;;;;;;;25.10;3.80;;;2.60;99.90;;;;;;5014757;28;20025;-79
2022/02/23 06:48:40;;;;;;;18.23;2.15;;;2.60;99.90;;;;;;5033968;28;20348;-81
2022/02/23 06:51:06;;;;;;;16.40;2.38;;;2.60;99.90;;;;;;5042377;28;20038;-81
2022/02/23 06:53:32;;;;;;;20.90;2.53;;;2.50;99.90;;;;;;5029129;28;20100;-81
2022/02/23 06:55:58;;;;;;;15.32;2.45;;;2.60;99.90;;;;;;5044425;28;20079;-80
2022/02/23 06:58:24;;;;;;;17.30;2.67;;;2.50;99.90;;;;;;5048517;28;20481;-81
2022/02/23 07:00:49;;;;;;;17.25;1.90;;;2.50;99.90;;;;;;5034903;28;20263;-80
2022/02/23 07:03:15;;;;;;;16.45;1.80;;;2.50;99.90;;;;;;5035115;28;20350;-81
2022/02/23 07:05:41;;;;;;;20.67;2.28;;;2.50;99.90;;;;;;5034902;28;20506;-81
2022/02/23 07:08:08;;;;;;;18.65;1.70;;;2.60;99.90;;;;;;5033602;28;20469;-81
2022/02/23 07:10:35;;;;;;;18.10;2.88;;;2.60;99.90;;;;;;5035352;28;20104;-81
2022/02/23 07:13:04;;;;;;;18.83;1.70;;;2.60;99.90;;;;;;5037983;28;20109;-81
2022/02/23 07:15:31;;;;;;;12.50;1.55;;;2.60;99.90;;;;;;5041489;28;20049;-81
2022/02/23 07:17:56;;;;;;;17.60;1.77;;;2.60;99.90;;;;;;5037630;28;20043;-82
2022/02/23 07:20:22;;;;;;;12.60;1.73;;;2.70;99.90;;;;;;5035112;28;20041;-81
2022/02/23 07:22:49;;;;;;;9.93;1.23;;;2.70;99.90;;;;;;5021054;28;20366;-81
2022/02/23 07:25:15;;;;;;;14.57;2.15;;;2.70;99.90;;;;;;5043143;28;20029;-80
2022/02/23 07:27:41;;;;;;;22.55;2.38;;;2.80;99.90;;;;;;5037486;28;20034;-82
2022/02/23 07:30:10;;;;;;;17.58;1.92;;;2.80;99.90;;;;;;5031631;28;20041;-81
2022/02/23 07:32:35;;;;;;;23.20;2.17;;;2.90;99.90;;;;;;5034582;28;20029;-81
2022/02/23 07:35:04;;;;;;;18.52;1.60;;;3.00;99.90;;;;;;5037905;28;20036;-81
2022/02/23 07:37:29;;;;;;;13.95;1.55;;;3.10;99.90;;;;;;5033536;28;20021;-80
2022/02/23 07:39:59;;;;;;;13.48;2.35;;;3.10;99.90;;;;;;5040588;28;20491;-80
2022/02/23 07:42:25;;;;;;;16.75;1.88;;;3.20;99.90;;;;;;5015287;28;20029;-80
2022/02/23 07:44:51;;;;;;;16.52;2.85;;;3.30;99.90;;;;;;5036625;28;20025;-77
2022/02/23 07:47:17;;;;;;;15.60;2.35;;;3.30;99.90;;;;;;5040282;28;20028;-79
2022/02/23 07:49:46;;;;;;;10.13;1.70;;;3.40;99.90;;;;;;5016338;28;20038;-80
2022/02/23 07:52:12;;;;;;;19.77;1.95;;;3.50;99.90;;;;;;5040091;28;20508;-80
2022/02/23 07:54:38;;;;;;;20.55;4.68;;;3.60;99.90;;;;;;5045578;28;20052;-80
2022/02/23 07:57:04;;;;;;;21.23;2.90;;;3.70;99.90;;;;;;5038274;28;20013;-79
2022/02/23 07:59:31;;;;;;;16.45;2.63;;;3.70;99.90;;;;;;5043716;28;20041;-80
2022/02/23 08:01:56;;;;;;;18.73;2.90;;;3.80;99.90;;;;;;5011159;28;20032;-80
2022/02/23 08:04:22;;;;;;;12.15;3.03;;;3.90;99.90;;;;;;5043602;28;20469;-80
2022/02/23 08:06:47;;;;;;;19.05;2.85;;;4.00;99.90;;;;;;5033995;28;20017;-81
2022/02/23 08:09:13;;;;;;;15.75;4.03;;;4.10;99.90;;;;;;5032026;28;20473;-80
2022/02/23 08:11:40;;;;;;;18.25;4.13;;;4.20;99.90;;;;;;5033787;28;20022;-79
2022/02/23 08:14:07;;;;;;;29.15;4.55;;;4.30;99.90;;;;;;5033250;28;20029;-79
2022/02/23 08:22:18;;;;;;;14.05;3.72;;;4.70;99.90;;;;;;5018202;28;20052;-81
2022/02/23 08:24:48;;;;;;;13.55;4.22;;;4.80;99.90;;;;;;5052756;28;20031;-81
2022/02/23 08:27:17;;;;;;;18.33;4.88;;;5.00;99.90;;;;;;5037432;28;20057;-81
2022/02/23 08:29:44;;;;;;;14.52;4.78;;;5.10;99.90;;;;;;5038934;28;20384;-81
2022/02/23 08:32:12;;;;;;;17.90;4.93;;;5.20;99.90;;;;;;5045448;28;20097;-81
2022/02/23 08:34:39;;;;;;;16.30;4.22;;;5.20;99.90;;;;;;5033479;28;20025;-81
2022/02/23 08:37:05;;;;;;;18.52;5.20;;;5.30;99.90;;;;;;5032577;28;20025;-80
2022/02/23 08:39:33;;;;;;;17.27;4.80;;;5.40;99.90;;;;;;5042669;28;20036;-81
2022/02/23 08:41:59;;;;;;;16.98;4.97;;;5.50;99.90;;;;;;5032592;28;20026;-81
2022/02/23 08:44:24;;;;;;;18.02;4.80;;;5.50;99.90;;;;;;5033397;28;20067;-81
2022/02/23 08:46:50;;;;;;;18.63;5.32;;;5.60;99.90;;;;;;5039905;28;20017;-80
2022/02/23 08:49:16;;;;;;;23.63;6.25;;;5.70;99.90;;;;;;5026863;28;20626;-80
2022/02/23 08:51:45;;;;;;;18.30;5.28;;;5.80;99.90;;;;;;5037119;28;20041;-81
2022/02/23 08:54:11;;;;;;;24.50;6.00;;;5.90;99.90;;;;;;5052729;28;20037;-81
2022/02/23 08:56:37;;;;;;;19.75;5.72;;;6.00;99.90;;;;;;5034064;28;20029;-79
2022/02/23 08:59:03;;;;;;;19.00;5.45;;;6.10;99.90;;;;;;5041585;28;20045;-80
2022/02/23 09:01:32;;;;;;;22.70;6.63;;;6.20;99.90;;;;;;5038660;28;20108;-80
2022/02/23 09:04:01;;;;;;;18.02;6.63;;;6.20;99.90;;;;;;5046375;28;20211;-80
2022/02/23 09:06:27;;;;;;;22.52;6.70;;;6.30;99.90;;;;;;5051091;28;20376;-81
2022/02/23 09:08:52;;;;;;;22.15;6.38;;;6.40;99.90;;;;;;5039519;28;20036;-80
2022/02/23 09:11:18;;;;;;;22.08;6.35;;;6.50;99.90;;;;;;5052987;28;20481;-81
2022/02/23 09:13:44;;;;;;;18.00;6.28;;;6.50;99.90;;;;;;5034382;28;20013;-81
2022/02/23 09:16:09;;;;;;;25.17;7.00;;;6.60;99.90;;;;;;5032901;28;20104;-81
2022/02/23 09:18:35;;;;;;;25.77;6.50;;;6.70;99.90;;;;;;5041953;28;20020;-81
2022/02/23 09:21:01;;;;;;;24.95;7.47;;;6.80;99.90;;;;;;5047766;28;20045;-81
2022/02/23 09:23:28;;;;;;;19.60;6.60;;;6.90;99.90;;;;;;5038436;28;20122;-81
2022/02/23 09:25:54;;;;;;;24.30;7.38;;;7.00;99.90;;;;;;5050587;28;20031;-81
2022/02/23 09:28:21;;;;;;;22.20;7.47;;;7.00;99.90;;;;;;5027421;28;20082;-81
2022/02/23 09:30:46;;;;;;;26.20;8.38;;;7.00;99.90;;;;;;5049141;28;20029;-81
2022/02/23 09:33:14;;;;;;;19.58;8.00;;;7.00;99.90;;;;;;5049214;28;20044;-81
2022/02/23 09:35:39;;;;;;;23.90;8.35;;;7.10;99.90;;;;;;5052090;28;20040;-81
2022/02/23 09:38:05;;;;;;;23.55;8.27;;;7.20;99.90;;;;;;5044337;28;20018;-81
2022/02/23 09:40:31;;;;;;;25.60;9.13;;;7.20;99.90;;;;;;5047375;28;20036;-81
2022/02/23 09:42:56;;;;;;;22.85;7.18;;;7.20;99.90;;;;;;5050772;28;20025;-81
2022/02/23 09:45:22;;;;;;;16.92;7.32;;;7.30;99.90;;;;;;5049803;28;20048;-81
2022/02/23 09:47:49;;;;;;;27.80;8.68;;;7.30;99.90;;;;;;5034995;28;20057;-81
2022/02/23 09:50:20;;;;;;;16.83;7.18;;;7.40;99.90;;;;;;5032345;28;20034;-81
2022/02/23 09:52:48;;;;;;;23.27;7.82;;;7.40;99.90;;;;;;5050562;28;20170;-81
2022/02/23 09:55:14;;;;;;;22.85;7.32;;;7.50;99.90;;;;;;5050395;28;20021;-81
2022/02/23 09:57:39;;;;;;;25.27;7.15;;;7.50;99.90;;;;;;5042005;28;20063;-81
2022/02/23 10:00:06;;;;;;;25.15;6.28;;;7.60;99.90;;;;;;5021793;28;20048;-81
2022/02/23 10:02:36;;;;;;;26.48;7.97;;;7.60;99.90;;;;;;5044711;28;20032;-81
2022/02/23 10:05:04;;;;;;;17.88;6.70;;;7.70;99.90;;;;;;5033751;28;20029;-81
2022/02/23 10:07:31;;;;;;;22.38;7.13;;;7.80;99.90;;;;;;5050192;28;20021;-81
2022/02/23 10:10:00;;;;;;;23.77;6.13;;;7.80;99.90;;;;;;5031274;28;20388;-81
2022/02/23 10:12:27;;;;;;;16.42;5.50;;;7.90;99.90;;;;;;5036758;28;20082;-81
2022/02/23 10:15:07;;;;;;;12.10;4.68;;;8.00;99.90;;;;;;5042487;28;20030;-81
2022/02/23 10:17:38;;;;;;;18.80;5.18;;;8.00;99.90;;;;;;5031297;28;20081;-81
2022/02/23 10:20:18;;;;;;;19.13;4.95;;;8.10;99.90;;;;;;5023136;28;20571;-81
2022/02/23 10:22:45;;;;;;;21.10;5.32;;;8.20;99.90;;;;;;5037164;28;20041;-81
2022/02/23 10:25:11;;;;;;;20.90;4.45;;;8.20;99.90;;;;;;5036431;28;20029;-81
2022/02/23 10:27:38;;;;;;;19.08;4.80;;;8.30;99.90;;;;;;5031743;28;20025;-81
2022/02/23 10:30:04;;;;;;;13.60;4.07;;;8.30;99.90;;;;;;5042294;28;20436;-81
2022/02/23 10:32:30;;;;;;;19.33;5.47;;;8.40;99.90;;;;;;5045036;28;20036;-81
2022/02/23 10:35:04;;;;;;;12.50;3.63;;;8.50;99.90;;;;;;5031061;28;20037;-81
2022/02/23 10:37:31;;;;;;;16.80;3.33;;;8.60;99.90;;;;;;5035506;28;20423;-81
2022/02/23 10:40:00;;;;;;;12.18;2.53;;;8.60;99.90;;;;;;5030618;28;20116;-81
2022/02/23 10:42:33;;;;;;;17.90;3.35;;;8.70;99.90;;;;;;5040747;28;20018;-81
2022/02/23 10:45:00;;;;;;;12.10;2.78;;;8.80;99.90;;;;;;5035748;28;20392;-81
2022/02/23 10:47:33;;;;;;;15.45;2.75;;;8.80;99.90;;;;;;5047738;28;20032;-81
2022/02/23 10:50:08;;;;;;;13.30;2.50;;;8.90;99.90;;;;;;5039404;28;20083;-80
2022/02/23 10:52:37;;;;;;;10.05;2.30;;;8.90;99.90;;;;;;5031502;28;20421;-81
2022/02/23 10:55:42;;;;;;;13.95;2.60;;;9.00;99.90;;;;;;5012465;28;20389;-81
2022/02/23 10:58:07;;;;;;;16.25;2.33;;;9.00;99.90;;;;;;5010948;28;20151;-81
2022/02/23 11:00:39;;;;;;;10.95;2.10;;;9.10;99.90;;;;;;5038685;28;20063;-81
2022/02/23 11:03:05;;;;;;;14.63;2.05;;;9.10;99.90;;;;;;5035393;28;20076;-81
2022/02/23 11:05:33;;;;;;;12.73;2.17;;;9.20;99.90;;;;;;5037875;28;20037;-81
2022/02/23 11:08:04;;;;;;;12.77;1.88;;;9.20;99.90;;;;;;5049545;28;20043;-81
2022/02/23 11:10:30;;;;;;;11.43;1.88;;;9.30;99.90;;;;;;5045115;28;20082;-81
2022/02/23 11:12:58;;;;;;;11.32;2.00;;;9.30;99.90;;;;;;5048713;28;20040;-80
2022/02/23 11:15:26;;;;;;;11.68;1.70;;;9.30;99.90;;;;;;5043599;28;20103;-82
2022/02/23 11:17:54;;;;;;;14.48;1.80;;;9.30;99.90;;;;;;5012843;28;20075;-82
2022/02/23 11:20:23;;;;;;;16.00;1.67;;;9.40;99.90;;;;;;5039166;28;20037;-82
2022/02/23 11:23:01;;;;;;;11.93;1.42;;;9.40;99.90;;;;;;5046155;28;20423;-80
2022/02/23 11:25:29;;;;;;;7.88;1.48;;;9.50;99.90;;;;;;5033687;28;20033;-81
2022/02/23 11:28:15;;;;;;;11.57;1.50;;;9.50;99.90;;;;;;5042464;28;20643;-81
2022/02/23 11:30:42;;;;;;;8.70;1.23;;;9.60;99.90;;;;;;5001318;28;20033;-81
2022/02/23 11:33:07;;;;;;;14.85;1.40;;;9.70;99.90;;;;;;5028215;28;20038;-82
2022/02/23 11:35:49;;;;;;;8.45;1.05;;;9.80;99.90;;;;;;5029282;28;20037;-81
2022/02/23 11:38:17;;;;;;;11.50;1.38;;;9.80;99.90;;;;;;5028321;28;20025;-81
2022/02/23 11:40:51;;;;;;;14.13;1.45;;;9.90;99.90;;;;;;5049429;28;20510;-82
2022/02/23 11:43:32;;;;;;;10.75;1.10;;;9.90;99.90;;;;;;5032062;28;20013;-81
2022/02/23 11:46:00;;;;;;;10.50;1.42;;;9.90;99.90;;;;;;5035785;28;20039;-81
2022/02/23 11:48:47;;;;;;;13.38;1.45;;;10.00;99.90;;;;;;5015501;28;20033;-81
2022/02/23 11:51:23;;;;;;;9.23;1.13;;;10.00;99.90;;;;;;5003532;28;20045;-82
2022/02/23 11:53:50;;;;;;;7.50;0.90;;;10.10;99.90;;;;;;5033807;28;20033;-78
2022/02/23 11:56:17;;;;;;;10.95;1.58;;;10.10;99.90;;;;;;5034621;28;20029;-80
2022/02/23 11:58:43;;;;;;;11.40;1.23;;;10.20;99.90;;;;;;5034082;28;20022;-81
2022/02/23 12:01:09;;;;;;;7.55;0.80;;;10.20;99.90;;;;;;5035614;28;20033;-82
2022/02/23 12:03:35;;;;;;;10.15;1.17;;;10.20;99.90;;;;;;5054192;28;20538;-81
2022/02/23 12:06:06;;;;;;;7.78;1.00;;;10.30;99.90;;;;;;5039332;28;20101;-80
2022/02/23 12:08:34;;;;;;;6.95;0.95;;;10.30;99.90;;;;;;5034274;28;20036;-82
2022/02/23 12:11:13;;;;;;;9.23;1.05;;;10.30;99.90;;;;;;5041545;28;20544;-82
2022/02/23 12:13:55;;;;;;;9.25;1.02;;;10.40;99.90;;;;;;5023865;28;20034;-82
2022/02/23 12:16:30;;;;;;;11.32;1.65;;;10.40;99.90;;;;;;5019802;28;20140;-81
2022/02/23 12:19:01;;;;;;;11.10;0.88;;;10.50;99.90;;;;;;5027802;28;20031;-81
2022/02/23 12:21:38;;;;;;;11.02;1.13;;;10.50;99.90;;;;;;5039244;28;20076;-81
2022/02/23 12:24:04;;;;;;;10.50;1.45;;;10.50;99.90;;;;;;5032044;28;20032;-81
2022/02/23 12:26:33;;;;;;;12.55;0.95;;;10.60;99.90;;;;;;5042713;28;20024;-81
2022/02/23 12:29:00;;;;;;;10.35;1.27;;;10.60;99.90;;;;;;5038997;28;20029;-81
2022/02/23 12:31:30;;;;;;;6.43;0.80;;;10.70;99.90;;;;;;5036396;28;20424;-81
2022/02/23 12:34:22;;;;;;;6.72;0.90;;;10.70;99.90;;;;;;5032919;28;20485;-82
2022/02/23 12:36:58;;;;;;;8.40;0.77;;;10.80;99.90;;;;;;5022856;28;20100;-81
2022/02/23 12:39:33;;;;;;;13.38;1.10;;;10.80;99.90;;;;;;5030087;28;20128;-81
2022/02/23 12:42:04;;;;;;;8.05;1.33;;;10.90;99.90;;;;;;5016477;28;20378;-81
2022/02/23 12:44:34;;;;;;;8.63;0.80;;;11.00;99.40;;;;;;5033725;28;20435;-82
2022/02/23 12:47:02;;;;;;;6.45;0.70;;;11.00;99.20;;;;;;5052788;28;20526;-81
2022/02/23 12:49:28;;;;;;;7.55;1.10;;;11.10;99.10;;;;;;5027219;28;20037;-82